Leadville, CO

3:01 PM MDT op 19 april 2015 (GMT -0600)
Lake County | | Change Station
CLOSE
Current Station
Luchthaven
Location: Leadville,
Geometrische hoogte: 9928 ft
Nabije weerstations

Hoogte 9928 ft 39.23 °N, 106.32 °W | Updated 8 minutes ago

Sneeuw
Sneeuw
33 °F
Voelt als 23 °F
N
15
Wind Variabel Wind van NW
Gusts 22 mijl/u

Vandaag
Hoog -- | Laag -- °F
--% Kans op neerslag
Gisteren
Hoog -- | Laag -- °F
Precip. -- inches
6:22 AM 7:46 PM
Nieuwe maan, 2% visible
Druk 29.92 inches
Zicht 2.5 mijlen
Wolken Gering 2300 ft
Merendeels bewolkt 2800 ft
Geheel bewolkt 4900 ft
Gevoelstemperatuur 23 °F
Dauwpunt 23 °F
Vochtigheid 66%
Neerslag 0.00 inches
Dikte sneeuw Niet beschikbaar.
UV 3 van de 12
Pollen 8.40 van de 12
Luchtkwaliteit Niet beschikbaar.
Flu Activity Local Activity
METAR KLXV 192053Z AUTO 32013G19KT 2 1/2SM -SN FEW023 BKN028 OVC049 01/M05 A3008 RMK AO2 UPB1957E1958SNB1955E1957B1958 SLP132 P0000 60000 T00061050 58004

More Conditions Fewer Conditions

Druk 29.92 inches
Zicht 2.5 mijlen
Wolken Gering 2300 ft
Merendeels bewolkt 2800 ft
Geheel bewolkt 4900 ft
Gevoelstemperatuur 23 °F
Dauwpunt 23 °F
Vochtigheid 66%
Neerslag 0.00 inches
Dikte sneeuw Niet beschikbaar.
UV 3 van de 12
Pollen 8.40 van de 12
Luchtkwaliteit Niet beschikbaar.
Flu Activity Local Activity
METAR KLXV 192053Z AUTO 32013G19KT 2 1/2SM -SN FEW023 BKN028 OVC049 01/M05 A3008 RMK AO2 UPB1957E1958SNB1955E1957B1958 SLP132 P0000 60000 T00061050 58004

More Conditions Fewer Conditions

10-Day Weather Forecast

Almanac

Astronomie

Apr. 19, 2015 Opkomst Ondergang
Werkelijke tijd
Burgerlijke schemering
Nautische schemering
Astronomische schemering
Maan
Golflengte van het zichtbare licht
Daglengte
Tomorrow will be .
, % of the Moon is Illuminated

Extremen vandaag

State Highs State Lows

Community

WunderPhotos

Upload Photos

1,814,980 foto’s ge-upload!

WunderBlogs® & News

Nearby

Luchtkwaliteit

  Luchtkwaliteit LK-index Verontreinigende stof
Not available.

Dikte sneeuw

Station Depth Geometrische hoogte

Aardbevingen

Stad Distance Mag. Time & Date
Minimum magnitude displayed is 2.5.

Watertemperatuur langs de kust

Plaats Temperatuur

Stations

Nabije weerstations

Locatie station Temp. Gevoelstemperatuur Dauwpunt Vochtigheid Wind Precip. Hoogte Geactualiseerd Type